createdAt,value
2023-05-14T00:00:59.484Z,83.08
2023-05-14T00:03:26.592Z,83.38
2023-05-14T00:05:53.612Z,84.35
2023-05-14T00:08:20.637Z,85.38
2023-05-14T00:10:47.603Z,85.73
2023-05-14T00:13:14.502Z,86.38
2023-05-14T00:15:41.544Z,86.44
2023-05-14T00:18:12.341Z,86.65
2023-05-14T00:20:39.504Z,86.89
2023-05-14T00:23:06.501Z,87.25
2023-05-14T00:25:33.467Z,87.16
2023-05-14T00:28:00.430Z,87.14
2023-05-14T00:30:27.332Z,87.34
2023-05-14T00:32:54.360Z,87.51
2023-05-14T00:35:21.716Z,87.52
2023-05-14T00:37:48.722Z,87.12
2023-05-14T00:40:15.911Z,87.31
2023-05-14T00:42:42.831Z,87.28
2023-05-14T00:45:10.485Z,86.97
2023-05-14T00:47:39.533Z,86.38
2023-05-14T00:50:07.309Z,86.44
2023-05-14T00:52:34.241Z,86.58
2023-05-14T00:55:03.398Z,86.37
2023-05-14T00:57:30.601Z,85.62
2023-05-14T00:59:58.369Z,85.29
2023-05-14T01:02:25.428Z,85.01
2023-05-14T01:04:52.468Z,84.90
2023-05-14T01:07:40.574Z,85.04
2023-05-14T01:10:32.993Z,85.21
2023-05-14T01:13:44.690Z,85.66
2023-05-14T01:16:13.545Z,85.70
2023-05-14T01:18:41.668Z,85.50
2023-05-14T01:21:42.950Z,85.82
2023-05-14T01:24:09.960Z,84.99
2023-05-14T01:26:37.068Z,84.70
2023-05-14T01:29:20.811Z,84.72
2023-05-14T01:31:48.067Z,84.82
2023-05-14T01:34:15.175Z,85.50
2023-05-14T01:36:42.390Z,85.80
2023-05-14T01:39:09.980Z,86.26
2023-05-14T01:41:37.585Z,86.42
2023-05-14T01:44:04.568Z,86.67
2023-05-14T01:46:32.966Z,86.61
2023-05-14T01:49:00.486Z,86.42
2023-05-14T01:51:27.549Z,86.31
2023-05-14T01:53:54.560Z,86.42
2023-05-14T01:56:23.678Z,86.60
2023-05-14T01:58:50.671Z,86.40
2023-05-14T02:01:17.711Z,85.78
2023-05-14T02:03:44.624Z,85.94
2023-05-14T02:06:11.642Z,86.34
2023-05-14T02:08:38.695Z,86.89
2023-05-14T02:11:05.746Z,87.37
2023-05-14T02:13:32.635Z,87.31
2023-05-14T02:15:59.619Z,87.01
2023-05-14T02:18:26.603Z,86.82
2023-05-14T02:20:53.570Z,86.85
2023-05-14T02:23:25.685Z,87.03
2023-05-14T02:25:58.247Z,87.63
2023-05-14T02:28:25.260Z,87.94
2023-05-14T02:30:52.173Z,88.32
2023-05-14T02:33:19.337Z,88.21
2023-05-14T02:35:46.343Z,88.36
2023-05-14T02:38:13.624Z,88.43
2023-05-14T02:40:40.507Z,88.90
2023-05-14T02:43:07.433Z,88.74
2023-05-14T02:45:35.895Z,88.32
2023-05-14T02:48:02.951Z,88.03
2023-05-14T02:50:30.972Z,88.45
2023-05-14T02:52:57.883Z,88.59
2023-05-14T02:55:26.608Z,88.18
2023-05-14T02:57:53.556Z,87.84
2023-05-14T03:00:20.750Z,88.43
2023-05-14T03:02:48.671Z,88.35
2023-05-14T03:05:16.138Z,87.82
2023-05-14T03:07:43.286Z,87.33
2023-05-14T03:10:10.695Z,87.20
2023-05-14T03:12:37.696Z,87.03
2023-05-14T03:15:05.221Z,87.12
2023-05-14T03:17:32.217Z,87.07
2023-05-14T03:19:59.241Z,87.05
2023-05-14T03:22:27.077Z,87.65
2023-05-14T03:24:54.088Z,87.52
2023-05-14T03:27:21.106Z,87.49
2023-05-14T03:29:47.982Z,87.88
2023-05-14T03:32:15.133Z,87.84
2023-05-14T03:34:42.441Z,87.67
2023-05-14T03:37:09.374Z,87.62
2023-05-14T03:39:36.622Z,87.62
2023-05-14T03:42:05.411Z,87.45
2023-05-14T03:44:32.270Z,86.99
2023-05-14T03:46:59.336Z,86.55
2023-05-14T03:49:26.514Z,86.30
2023-05-14T03:51:53.486Z,86.48
2023-05-14T03:54:20.535Z,86.45
2023-05-14T03:56:47.645Z,86.31
2023-05-14T03:59:14.615Z,86.02
2023-05-14T04:01:41.591Z,85.68
2023-05-14T04:04:08.655Z,85.07
2023-05-14T04:06:35.703Z,84.25
2023-05-14T04:09:03.548Z,82.60
2023-05-14T04:11:30.599Z,81.23
2023-05-14T04:13:58.289Z,79.73
2023-05-14T04:16:25.239Z,77.78
2023-05-14T04:18:52.263Z,77.04
2023-05-14T04:21:19.253Z,75.92
2023-05-14T04:23:46.264Z,75.22
2023-05-14T04:26:13.282Z,74.80
2023-05-14T04:28:40.709Z,74.46
2023-05-14T04:31:07.739Z,74.00
2023-05-14T04:33:34.684Z,72.85
2023-05-14T04:36:02.190Z,71.92
2023-05-14T04:38:29.295Z,71.43
2023-05-14T04:40:57.029Z,71.04
2023-05-14T04:43:24.038Z,70.93
2023-05-14T04:45:52.529Z,70.29
2023-05-14T04:48:19.673Z,70.23
2023-05-14T04:50:46.653Z,70.16
2023-05-14T04:53:13.516Z,69.95
2023-05-14T04:55:41.478Z,69.58
2023-05-14T04:58:08.452Z,68.93
2023-05-14T05:00:35.434Z,68.48
2023-05-14T05:03:02.439Z,68.44
2023-05-14T05:05:29.415Z,68.19
2023-05-14T05:07:56.457Z,67.49
2023-05-14T05:10:23.888Z,66.99
2023-05-14T05:12:51.005Z,66.43
2023-05-14T05:15:18.063Z,65.91
2023-05-14T05:17:45.026Z,65.86
2023-05-14T05:20:12.841Z,65.53
2023-05-14T05:22:39.871Z,65.19
2023-05-14T05:25:08.231Z,64.81
2023-05-14T05:27:35.492Z,64.44
2023-05-14T05:30:02.560Z,63.95
2023-05-14T05:32:29.856Z,63.05
2023-05-14T05:34:57.087Z,62.56
2023-05-14T05:37:24.062Z,61.74
2023-05-14T05:39:51.009Z,60.37
2023-05-14T05:42:17.905Z,59.12
2023-05-14T05:44:44.934Z,58.45
2023-05-14T05:47:11.950Z,57.68
2023-05-14T05:49:38.870Z,56.47
2023-05-14T05:52:05.874Z,55.27
2023-05-14T05:54:32.960Z,54.46
2023-05-14T05:57:00.077Z,53.21
2023-05-14T05:59:27.133Z,52.15
2023-05-14T06:01:54.231Z,51.55
2023-05-14T06:04:21.135Z,51.12
2023-05-14T06:06:48.077Z,50.86
2023-05-14T06:09:15.084Z,49.13
2023-05-14T06:11:42.031Z,48.74
2023-05-14T06:14:09.107Z,48.40
2023-05-14T06:16:36.093Z,48.39
2023-05-14T06:19:03.171Z,48.13
2023-05-14T06:21:30.125Z,47.26
2023-05-14T06:23:57.203Z,46.63
2023-05-14T06:26:24.058Z,45.96
2023-05-14T06:28:51.086Z,45.15
2023-05-14T06:31:19.040Z,44.92
2023-05-14T06:33:46.106Z,44.60
2023-05-14T06:36:13.121Z,43.86
2023-05-14T06:38:40.111Z,42.95
2023-05-14T06:41:07.079Z,42.98
2023-05-14T06:43:34.028Z,41.62
2023-05-14T06:46:01.518Z,40.26
2023-05-14T06:48:29.585Z,38.28
2023-05-14T06:50:56.618Z,37.62
2023-05-14T06:53:23.648Z,37.29
2023-05-14T06:55:50.917Z,37.82
2023-05-14T06:58:17.903Z,37.20
2023-05-14T07:00:44.890Z,36.86
2023-05-14T07:03:11.780Z,35.66
2023-05-14T07:05:40.701Z,36.74
2023-05-14T07:08:07.620Z,36.03
2023-05-14T07:10:34.565Z,36.02
2023-05-14T07:13:01.520Z,34.34
2023-05-14T07:15:28.393Z,34.00
2023-05-14T07:17:55.471Z,33.43
2023-05-14T07:20:24.394Z,33.25
2023-05-14T07:22:52.373Z,32.34
2023-05-14T07:25:19.286Z,32.30
2023-05-14T07:27:46.268Z,32.03
2023-05-14T07:30:13.452Z,31.82
2023-05-14T07:32:40.694Z,33.08
2023-05-14T07:35:08.457Z,33.37
2023-05-14T07:37:35.392Z,32.12
2023-05-14T07:40:02.386Z,30.95
2023-05-14T07:42:36.783Z,30.01
2023-05-14T07:45:05.379Z,29.72
2023-05-14T07:47:32.452Z,30.60
2023-05-14T07:49:59.666Z,30.02
2023-05-14T07:52:26.601Z,30.35
2023-05-14T07:54:53.597Z,29.73
2023-05-14T07:57:20.549Z,30.31
2023-05-14T07:59:48.148Z,30.65
2023-05-14T08:02:17.100Z,30.57
2023-05-14T08:04:44.647Z,31.26
2023-05-14T08:07:11.809Z,30.76
2023-05-14T08:09:38.829Z,30.60
2023-05-14T08:12:06.340Z,30.07
2023-05-14T08:14:33.388Z,29.88
2023-05-14T08:17:00.516Z,30.04
2023-05-14T08:19:28.041Z,28.92
2023-05-14T08:21:54.946Z,28.24
2023-05-14T08:24:21.923Z,27.58
2023-05-14T08:26:48.928Z,27.68
2023-05-14T08:29:16.678Z,26.75
2023-05-14T08:31:44.114Z,27.07
2023-05-14T08:34:11.140Z,27.24
2023-05-14T08:36:38.871Z,27.66
2023-05-14T08:39:07.982Z,27.89
2023-05-14T08:41:35.127Z,28.54
2023-05-14T08:44:09.515Z,28.72
2023-05-14T08:46:37.081Z,28.65
2023-05-14T08:49:40.990Z,28.70
2023-05-14T08:52:11.584Z,28.90
2023-05-14T08:54:38.997Z,28.86
2023-05-14T08:57:06.327Z,28.88
2023-05-14T08:59:33.213Z,28.72
2023-05-14T09:02:02.146Z,28.44
2023-05-14T09:04:29.770Z,27.86
2023-05-14T09:06:56.728Z,27.65
2023-05-14T09:09:23.684Z,27.68
2023-05-14T09:11:51.612Z,27.94
2023-05-14T09:14:18.663Z,27.34
2023-05-14T09:16:46.104Z,27.58
2023-05-14T09:19:13.812Z,27.50
2023-05-14T09:21:41.052Z,27.07
2023-05-14T09:24:08.115Z,26.45
2023-05-14T09:26:35.353Z,25.83
2023-05-14T09:29:02.677Z,26.20
2023-05-14T09:31:31.063Z,25.55
2023-05-14T09:33:58.425Z,24.89
2023-05-14T09:36:27.203Z,24.84
2023-05-14T09:38:56.933Z,24.87
2023-05-14T09:41:24.446Z,25.22
2023-05-14T09:43:51.698Z,24.70
2023-05-14T09:46:18.562Z,24.84
2023-05-14T09:48:46.156Z,25.74
2023-05-14T09:51:13.324Z,25.73
2023-05-14T09:53:41.359Z,25.79
2023-05-14T09:56:08.386Z,25.77
2023-05-14T09:58:35.295Z,26.71
2023-05-14T10:01:02.711Z,26.23
2023-05-14T10:03:29.967Z,26.32
2023-05-14T10:06:00.037Z,26.55
2023-05-14T10:08:28.472Z,26.73
2023-05-14T10:10:56.161Z,26.53
2023-05-14T10:13:24.686Z,26.20
2023-05-14T10:16:13.967Z,26.66
2023-05-14T10:18:43.152Z,27.71
2023-05-14T10:21:10.166Z,27.67
2023-05-14T10:23:40.743Z,27.12
2023-05-14T10:26:08.364Z,27.26
2023-05-14T10:28:35.553Z,27.53
2023-05-14T10:31:02.611Z,27.29
2023-05-14T10:33:29.743Z,26.73
2023-05-14T10:36:07.349Z,25.85
2023-05-14T10:38:37.557Z,25.79
2023-05-14T10:41:12.206Z,24.88
2023-05-14T10:43:40.171Z,25.79
2023-05-14T10:46:07.780Z,24.99
2023-05-14T10:48:34.826Z,24.65
2023-05-14T10:51:02.640Z,25.52
2023-05-14T10:53:37.274Z,24.53
2023-05-14T10:56:13.963Z,24.64
2023-05-14T10:58:43.043Z,25.60
2023-05-14T11:01:11.171Z,25.35
2023-05-14T11:03:43.920Z,24.91
2023-05-14T11:06:11.745Z,24.41
2023-05-14T11:08:38.972Z,23.91
2023-05-14T11:11:09.211Z,24.33
2023-05-14T11:13:36.208Z,23.81
2023-05-14T11:16:12.018Z,23.99
2023-05-14T11:18:49.206Z,23.69
2023-05-14T11:21:17.479Z,23.64
2023-05-14T11:23:46.692Z,23.91
2023-05-14T11:26:13.784Z,24.58
2023-05-14T11:28:40.902Z,25.17
2023-05-14T11:31:07.917Z,26.07
2023-05-14T11:33:34.895Z,26.81
2023-05-14T11:36:02.217Z,27.18
2023-05-14T11:38:29.209Z,26.92
2023-05-14T11:40:57.085Z,27.19
2023-05-14T11:43:24.149Z,27.85
2023-05-14T11:45:52.552Z,27.96
2023-05-14T11:48:20.540Z,28.07
2023-05-14T11:50:48.566Z,28.24
2023-05-14T11:53:29.581Z,28.19
2023-05-14T11:55:58.062Z,28.31
2023-05-14T11:58:25.063Z,27.99
2023-05-14T12:00:52.856Z,27.17
2023-05-14T12:03:25.725Z,26.70
2023-05-14T12:05:59.772Z,27.55
2023-05-14T12:08:28.272Z,27.32
2023-05-14T12:10:55.640Z,26.79
2023-05-14T12:13:22.869Z,27.00
2023-05-14T12:15:57.064Z,27.48
2023-05-14T12:18:33.827Z,27.24
2023-05-14T12:21:04.501Z,26.76
2023-05-14T12:23:31.878Z,26.94
2023-05-14T12:26:03.684Z,27.44
2023-05-14T12:28:31.182Z,26.66
2023-05-14T12:30:58.641Z,25.90
2023-05-14T12:33:28.822Z,25.98
2023-05-14T12:36:09.937Z,26.44
2023-05-14T12:38:47.155Z,26.15
2023-05-14T12:41:14.036Z,26.26
2023-05-14T12:43:43.220Z,25.82
2023-05-14T12:46:10.752Z,25.58
2023-05-14T12:48:37.680Z,25.48
2023-05-14T12:51:04.688Z,25.35
2023-05-14T12:53:31.612Z,25.90
2023-05-14T12:55:58.776Z,26.53
2023-05-14T12:58:25.654Z,26.41
2023-05-14T13:00:52.546Z,26.58
2023-05-14T13:03:19.679Z,26.68
2023-05-14T13:05:46.708Z,26.72
2023-05-14T13:08:17.894Z,27.41
2023-05-14T13:10:45.045Z,27.36
2023-05-14T13:13:12.150Z,27.16
2023-05-14T13:15:39.168Z,27.48
2023-05-14T13:18:06.290Z,27.57
2023-05-14T13:20:33.916Z,27.19
2023-05-14T13:23:00.786Z,27.14
2023-05-14T13:25:27.761Z,27.37
2023-05-14T13:27:55.241Z,26.89
2023-05-14T13:30:22.279Z,26.16
2023-05-14T13:32:49.264Z,25.84
2023-05-14T13:35:16.314Z,25.66
2023-05-14T13:37:43.965Z,24.95
2023-05-14T13:40:11.352Z,24.62
2023-05-14T13:42:39.949Z,24.43
2023-05-14T13:45:07.523Z,24.26
2023-05-14T13:47:34.514Z,24.62
2023-05-14T13:50:01.481Z,24.56
2023-05-14T13:52:28.358Z,24.46
2023-05-14T13:54:55.402Z,24.25
2023-05-14T13:57:23.245Z,24.02
2023-05-14T13:59:50.153Z,24.20
2023-05-14T14:02:17.800Z,23.86
2023-05-14T14:04:44.933Z,23.77
2023-05-14T14:07:11.922Z,23.78
2023-05-14T14:09:39.042Z,23.71
2023-05-14T14:12:06.752Z,23.65
2023-05-14T14:14:33.865Z,23.96
2023-05-14T14:17:00.879Z,24.58
2023-05-14T14:19:27.897Z,24.74
2023-05-14T14:21:54.902Z,25.12
2023-05-14T14:24:21.896Z,25.75
2023-05-14T14:26:48.732Z,25.14
2023-05-14T14:29:15.726Z,25.21
2023-05-14T14:31:43.662Z,25.40
2023-05-14T14:34:10.911Z,25.06
2023-05-14T14:36:37.884Z,24.88
2023-05-14T14:39:04.952Z,25.02
2023-05-14T14:41:31.911Z,25.40
2023-05-14T14:43:58.862Z,25.14
2023-05-14T14:46:25.983Z,25.54
2023-05-14T14:48:53.136Z,24.95
2023-05-14T14:51:20.007Z,24.84
2023-05-14T14:53:47.025Z,25.15
2023-05-14T14:56:13.980Z,25.41
2023-05-14T14:58:40.993Z,25.16
2023-05-14T15:01:07.946Z,25.42
2023-05-14T15:03:35.368Z,25.27
2023-05-14T15:06:02.448Z,25.27
2023-05-14T15:08:29.428Z,25.78
2023-05-14T15:10:56.659Z,25.70
2023-05-14T15:13:24.763Z,25.29
2023-05-14T15:15:52.599Z,25.44
2023-05-14T15:18:19.776Z,25.88
2023-05-14T15:20:46.854Z,26.44
2023-05-14T15:23:13.874Z,25.84
2023-05-14T15:25:40.777Z,25.37
2023-05-14T15:28:07.806Z,25.40
2023-05-14T15:30:34.880Z,25.29
2023-05-14T15:33:01.933Z,25.65
2023-05-14T15:35:29.049Z,26.06
2023-05-14T15:37:59.463Z,26.32
2023-05-14T15:40:27.397Z,26.58
2023-05-14T15:42:54.999Z,26.56
2023-05-14T15:45:21.962Z,26.36
2023-05-14T15:47:48.966Z,26.94
2023-05-14T15:50:15.938Z,27.97
2023-05-14T15:52:42.856Z,27.96
2023-05-14T15:55:10.410Z,28.54
2023-05-14T15:57:37.340Z,29.09
2023-05-14T16:00:13.169Z,29.19
2023-05-14T16:02:40.334Z,29.37
2023-05-14T16:05:08.440Z,29.65
2023-05-14T16:07:36.089Z,29.68
2023-05-14T16:10:03.576Z,29.72
2023-05-14T16:12:30.747Z,28.55
2023-05-14T16:14:57.804Z,26.87
2023-05-14T16:17:24.844Z,27.21
2023-05-14T16:19:53.452Z,26.90
2023-05-14T16:22:22.330Z,26.90
2023-05-14T16:24:49.246Z,26.71
2023-05-14T16:27:18.479Z,26.87
2023-05-14T16:29:45.611Z,27.34
2023-05-14T16:32:12.748Z,27.52
2023-05-14T16:34:39.982Z,27.21
2023-05-14T16:37:06.862Z,26.25
2023-05-14T16:39:33.754Z,25.86
2023-05-14T16:42:00.713Z,25.95
2023-05-14T16:44:27.725Z,26.10
2023-05-14T16:46:54.688Z,26.09
2023-05-14T16:49:22.588Z,26.70
2023-05-14T16:51:49.592Z,27.32
2023-05-14T16:54:16.751Z,27.78
2023-05-14T16:56:48.293Z,28.30
2023-05-14T16:59:15.848Z,28.86
2023-05-14T17:01:43.503Z,29.40
2023-05-14T17:04:10.611Z,29.70
2023-05-14T17:06:37.487Z,29.90
2023-05-14T17:09:04.417Z,30.06
2023-05-14T17:11:31.336Z,30.52
2023-05-14T17:13:58.264Z,30.71
2023-05-14T17:16:26.124Z,31.05
2023-05-14T17:18:53.107Z,31.43
2023-05-14T17:21:20.150Z,31.84
2023-05-14T17:23:47.157Z,32.08
2023-05-14T17:26:14.063Z,32.32
2023-05-14T17:28:41.053Z,32.55
2023-05-14T17:31:08.054Z,32.70
2023-05-14T17:33:35.021Z,32.96
2023-05-14T17:36:02.030Z,33.11
2023-05-14T17:38:29.005Z,33.33
2023-05-14T17:40:55.930Z,33.42
2023-05-14T17:43:22.798Z,33.48
2023-05-14T17:45:54.543Z,33.71
2023-05-14T17:48:23.307Z,33.66
2023-05-14T17:50:51.755Z,33.94
2023-05-14T17:53:18.803Z,34.22
2023-05-14T17:55:45.969Z,34.44
2023-05-14T17:58:14.524Z,34.76
2023-05-14T18:00:41.652Z,34.80
2023-05-14T18:03:08.720Z,35.28
2023-05-14T18:05:35.686Z,35.75
2023-05-14T18:08:02.736Z,35.82
2023-05-14T18:10:29.852Z,35.89
2023-05-14T18:12:56.911Z,35.92
2023-05-14T18:15:25.718Z,36.12
2023-05-14T18:17:53.154Z,36.33
2023-05-14T18:20:20.293Z,37.13
2023-05-14T18:22:47.191Z,37.48
2023-05-14T18:25:14.209Z,37.53
2023-05-14T18:27:44.707Z,38.08
2023-05-14T18:30:13.906Z,38.63
2023-05-14T18:32:41.851Z,38.66
2023-05-14T18:35:09.423Z,39.13
2023-05-14T18:37:36.656Z,40.40
2023-05-14T18:40:04.866Z,41.04
2023-05-14T18:42:31.753Z,41.02
2023-05-14T18:44:58.690Z,41.25
2023-05-14T18:47:25.702Z,41.83
2023-05-14T18:49:55.385Z,42.62
2023-05-14T18:52:23.155Z,41.86
2023-05-14T18:54:50.939Z,41.83
2023-05-14T18:57:17.880Z,41.74
2023-05-14T18:59:44.880Z,41.55
2023-05-14T19:02:11.956Z,42.05
2023-05-14T19:04:51.273Z,43.57
2023-05-14T19:07:19.771Z,44.73
2023-05-14T19:09:46.717Z,45.25
2023-05-14T19:12:14.108Z,45.64
2023-05-14T19:14:41.051Z,46.15
2023-05-14T19:17:07.993Z,46.37
2023-05-14T19:19:34.843Z,45.50
2023-05-14T19:22:01.761Z,46.01
2023-05-14T19:24:28.756Z,46.10
2023-05-14T19:26:56.038Z,46.88
2023-05-14T19:29:23.069Z,47.11
2023-05-14T19:31:50.163Z,48.25
2023-05-14T19:34:17.215Z,48.26
2023-05-14T19:36:44.170Z,49.06
2023-05-14T19:39:11.111Z,49.41
2023-05-14T19:41:38.136Z,50.67
2023-05-14T19:44:05.152Z,51.34
2023-05-14T19:46:32.180Z,51.81
2023-05-14T19:48:59.240Z,52.14
2023-05-14T19:51:26.340Z,52.41
2023-05-14T19:53:53.297Z,53.01
2023-05-14T19:56:20.190Z,52.72
2023-05-14T19:58:47.274Z,53.04
2023-05-14T20:01:14.790Z,53.51
2023-05-14T20:03:42.036Z,54.71
2023-05-14T20:06:09.101Z,54.28
2023-05-14T20:08:36.088Z,54.45
2023-05-14T20:11:03.450Z,55.04
2023-05-14T20:13:33.260Z,55.84
2023-05-14T20:16:00.208Z,56.66
2023-05-14T20:18:27.338Z,57.41
2023-05-14T20:20:54.943Z,58.28
2023-05-14T20:23:21.893Z,58.57
2023-05-14T20:25:48.866Z,59.19
2023-05-14T20:28:15.889Z,59.89
2023-05-14T20:30:42.918Z,60.15
2023-05-14T20:33:10.201Z,60.37
2023-05-14T20:35:37.363Z,60.63
2023-05-14T20:38:04.353Z,61.26
2023-05-14T20:40:32.834Z,61.75
2023-05-14T20:42:59.952Z,61.78
2023-05-14T20:45:27.291Z,61.41
2023-05-14T20:47:54.520Z,61.81
2023-05-14T20:50:22.696Z,62.67
2023-05-14T20:52:49.588Z,62.80
2023-05-14T20:55:16.808Z,63.52
2023-05-14T20:57:43.890Z,64.24
2023-05-14T21:00:11.413Z,64.80
2023-05-14T21:02:38.714Z,64.80
2023-05-14T21:05:06.594Z,65.14
2023-05-14T21:07:33.696Z,65.87
2023-05-14T21:10:01.848Z,66.05
2023-05-14T21:12:28.876Z,66.40
2023-05-14T21:14:56.012Z,66.88
2023-05-14T21:17:22.958Z,67.35
2023-05-14T21:19:50.114Z,67.86
2023-05-14T21:22:17.072Z,68.09
2023-05-14T21:24:44.007Z,68.09
2023-05-14T21:27:10.943Z,68.52
2023-05-14T21:29:37.898Z,68.55
2023-05-14T21:32:05.778Z,68.72
2023-05-14T21:34:32.849Z,68.93
2023-05-14T21:36:59.759Z,69.37
2023-05-14T21:39:26.664Z,69.82
2023-05-14T21:41:53.650Z,70.07
2023-05-14T21:44:21.812Z,70.59
2023-05-14T21:46:48.688Z,70.91
2023-05-14T21:49:15.568Z,71.50
2023-05-14T21:51:42.982Z,71.87
2023-05-14T21:54:09.869Z,72.25
2023-05-14T21:56:37.255Z,72.73
2023-05-14T21:59:05.035Z,72.97
2023-05-14T22:01:33.795Z,73.46
2023-05-14T22:04:05.745Z,73.73
2023-05-14T22:06:33.852Z,73.83
2023-05-14T22:09:00.743Z,73.80
2023-05-14T22:11:28.022Z,73.80
2023-05-14T22:13:54.866Z,74.00
2023-05-14T22:16:22.550Z,74.53
2023-05-14T22:18:49.685Z,74.58
2023-05-14T22:21:16.759Z,74.67
2023-05-14T22:23:43.872Z,75.18
2023-05-14T22:26:11.320Z,75.37
2023-05-14T22:28:42.882Z,75.28
2023-05-14T22:31:10.463Z,75.50
2023-05-14T22:33:37.540Z,76.43
2023-05-14T22:36:07.088Z,76.81
2023-05-14T22:38:34.291Z,77.43
2023-05-14T22:41:01.303Z,77.88
2023-05-14T22:43:28.764Z,78.42
2023-05-14T22:45:55.732Z,78.96
2023-05-14T22:48:22.648Z,79.16
2023-05-14T22:50:49.477Z,79.43
2023-05-14T22:53:16.376Z,79.36
2023-05-14T22:55:43.357Z,79.03
2023-05-14T22:58:10.401Z,79.18
2023-05-14T23:00:37.483Z,79.44
2023-05-14T23:03:04.589Z,79.96
2023-05-14T23:05:31.541Z,80.42
2023-05-14T23:07:58.443Z,80.67
2023-05-14T23:10:25.511Z,80.83
2023-05-14T23:12:52.388Z,80.63
2023-05-14T23:15:19.366Z,80.84
2023-05-14T23:17:46.437Z,81.13
2023-05-14T23:20:13.703Z,81.40
2023-05-14T23:22:40.915Z,81.69
2023-05-14T23:25:08.250Z,81.78
2023-05-14T23:27:35.515Z,82.03
2023-05-14T23:30:03.815Z,82.12
2023-05-14T23:32:30.950Z,82.12
2023-05-14T23:34:58.120Z,82.42
2023-05-14T23:37:24.994Z,82.59
2023-05-14T23:39:52.308Z,82.62
2023-05-14T23:42:19.321Z,82.60
2023-05-14T23:44:46.366Z,82.63
2023-05-14T23:47:13.349Z,82.54
2023-05-14T23:49:40.930Z,82.28
2023-05-14T23:52:07.899Z,82.14
2023-05-14T23:54:34.937Z,82.17
2023-05-14T23:57:03.382Z,81.87
2023-05-14T23:59:30.372Z,81.76
